Time;durP1;ratioP1;P1;durP2;ratioP2;P2;SDS_P1;SDS_P2;PMS_P1;PMS_P2;Temp;Humidity;BMP_temperature;BMP_pressure;BME280_temperature;BME280_humidity;BME280_pressure;Samples;Min_cycle;Max_cycle;Signal;HPM_P1;HPM_P2
2021/10/04 00:01:06;;;;;;;7.50;1.38;;;12.80;81.40;;;;;;5098299;28;20023;-77
2021/10/04 00:03:32;;;;;;;10.57;1.48;;;12.70;81.10;;;;;;5115718;28;20020;-78
2021/10/04 00:05:58;;;;;;;10.75;1.27;;;12.70;81.60;;;;;;5096739;28;20024;-77
2021/10/04 00:08:24;;;;;;;8.10;1.20;;;12.60;81.60;;;;;;5095405;28;20490;-77
2021/10/04 00:10:53;;;;;;;4.53;1.10;;;12.70;81.60;;;;;;5096613;28;20070;-77
2021/10/04 00:13:19;;;;;;;3.60;1.70;;;12.70;81.30;;;;;;5115466;28;20023;-77
2021/10/04 00:15:46;;;;;;;3.78;0.98;;;12.80;81.30;;;;;;5115483;28;20077;-77
2021/10/04 00:18:12;;;;;;;3.28;1.20;;;12.70;81.20;;;;;;5100289;28;20049;-78
2021/10/04 00:20:38;;;;;;;3.80;0.93;;;12.60;81.60;;;;;;5095168;28;20089;-77
2021/10/04 00:23:05;;;;;;;7.57;1.42;;;12.50;82.00;;;;;;5098871;28;20024;-78
2021/10/04 00:25:31;;;;;;;4.57;1.10;;;12.50;82.20;;;;;;5112404;28;20074;-77
2021/10/04 00:27:59;;;;;;;4.32;1.42;;;12.50;82.20;;;;;;5119427;28;20405;-77
2021/10/04 00:30:25;;;;;;;3.38;1.00;;;12.50;82.00;;;;;;5100510;28;20024;-77
2021/10/04 00:32:53;;;;;;;5.47;1.20;;;12.50;81.70;;;;;;5098788;28;20046;-77
2021/10/04 00:35:21;;;;;;;6.60;1.65;;;12.50;81.60;;;;;;5098938;28;20028;-77
2021/10/04 00:37:47;;;;;;;3.67;1.30;;;12.50;81.90;;;;;;5083201;28;20022;-77
2021/10/04 00:40:16;;;;;;;6.15;1.00;;;12.50;81.80;;;;;;5119036;28;20043;-77
2021/10/04 00:42:42;;;;;;;9.40;1.30;;;12.50;82.00;;;;;;5119240;28;20031;-77
2021/10/04 00:45:10;;;;;;;3.67;1.20;;;12.50;81.80;;;;;;5102313;28;20054;-77
2021/10/04 00:47:36;;;;;;;6.30;1.27;;;12.40;81.60;;;;;;5098496;28;20031;-77
2021/10/04 00:50:15;;;;;;;;;;;;;;;;;;;;;
2021/10/04 00:52:41;;;;;;;4.90;1.17;;;12.50;82.00;;;;;;5098630;28;20515;-77
2021/10/04 00:55:08;;;;;;;5.78;1.27;;;12.50;81.90;;;;;;5098571;28;20063;-77
2021/10/04 00:57:36;;;;;;;4.25;1.23;;;12.50;82.10;;;;;;5098359;28;20481;-77
2021/10/04 01:00:03;;;;;;;6.57;1.20;;;12.40;81.80;;;;;;5103692;28;20057;-77
2021/10/04 01:02:29;;;;;;;5.60;0.95;;;12.40;82.00;;;;;;5112083;28;20019;-77
2021/10/04 01:04:55;;;;;;;5.05;1.35;;;12.40;81.90;;;;;;5118709;28;20039;-77
2021/10/04 01:07:23;;;;;;;4.25;1.30;;;12.30;82.50;;;;;;5116908;28;20097;-77
2021/10/04 01:09:49;;;;;;;4.10;1.60;;;12.40;82.10;;;;;;5098077;28;20497;-77
2021/10/04 01:12:15;;;;;;;2.58;0.65;;;12.30;82.50;;;;;;5098164;28;20133;-77
2021/10/04 01:14:41;;;;;;;2.85;0.95;;;12.30;82.50;;;;;;5098103;28;20056;-77
2021/10/04 01:17:07;;;;;;;3.53;1.08;;;12.30;82.80;;;;;;5083575;28;20028;-77
2021/10/04 01:19:38;;;;;;;5.82;1.08;;;12.30;82.70;;;;;;5079968;28;20036;-77
2021/10/04 01:22:03;;;;;;;4.68;1.00;;;12.30;83.00;;;;;;5102139;28;20096;-77
2021/10/04 01:24:32;;;;;;;7.22;1.63;;;12.20;83.30;;;;;;5118126;28;20024;-77
2021/10/04 01:26:57;;;;;;;4.22;1.08;;;12.20;83.20;;;;;;5118383;28;20039;-77
2021/10/04 01:29:23;;;;;;;7.60;1.60;;;12.20;83.20;;;;;;5118089;28;20024;-77
2021/10/04 01:31:49;;;;;;;4.88;1.10;;;12.20;83.20;;;;;;5112056;28;20027;-77
2021/10/04 01:34:15;;;;;;;2.72;0.82;;;12.30;83.40;;;;;;5097722;28;20024;-77
2021/10/04 01:36:40;;;;;;;8.43;1.20;;;12.20;83.10;;;;;;5097660;28;20024;-77
2021/10/04 01:39:06;;;;;;;7.13;1.40;;;12.20;83.50;;;;;;5079053;28;20059;-77
2021/10/04 01:41:32;;;;;;;5.20;1.52;;;12.30;83.20;;;;;;5097571;28;20031;-77
2021/10/04 01:43:58;;;;;;;9.02;1.50;;;12.40;83.20;;;;;;5097591;28;20405;-77
2021/10/04 01:46:23;;;;;;;3.53;0.80;;;12.50;83.00;;;;;;5097727;28;20024;-78
2021/10/04 01:48:49;;;;;;;7.80;1.90;;;12.50;82.90;;;;;;5097224;28;20024;-77
2021/10/04 01:51:15;;;;;;;3.80;1.20;;;12.50;82.80;;;;;;5097194;28;20020;-78
2021/10/04 01:53:41;;;;;;;5.45;1.27;;;12.40;83.20;;;;;;5097271;28;20032;-77
2021/10/04 01:56:07;;;;;;;3.35;1.00;;;12.50;83.00;;;;;;5097226;28;20081;-77
2021/10/04 01:59:00;;;;;;;;;;;;;;;;;;;;;
2021/10/04 02:01:26;;;;;;;7.95;1.30;;;12.50;82.60;;;;;;5113886;28;20033;-78
2021/10/04 02:03:54;;;;;;;4.97;1.20;;;12.60;82.30;;;;;;5107307;28;20052;-78
2021/10/04 02:06:20;;;;;;;8.48;1.30;;;12.60;82.30;;;;;;5097127;28;20028;-78
2021/10/04 02:08:46;;;;;;;2.22;0.73;;;12.40;82.90;;;;;;5112111;28;20034;-78
2021/10/04 02:11:11;;;;;;;6.05;1.30;;;12.40;82.90;;;;;;5117446;28;20313;-77
2021/10/04 02:13:37;;;;;;;5.95;1.30;;;12.40;82.90;;;;;;5117348;28;20058;-77
2021/10/04 02:16:05;;;;;;;7.80;1.13;;;12.50;82.80;;;;;;5116518;28;20031;-77
2021/10/04 02:18:31;;;;;;;6.68;1.10;;;12.50;82.50;;;;;;5117166;28;20037;-77
2021/10/04 02:20:57;;;;;;;4.90;1.05;;;12.50;82.80;;;;;;5113588;28;20012;-77
2021/10/04 02:23:23;;;;;;;5.97;1.27;;;12.50;82.70;;;;;;5096696;28;20024;-77
2021/10/04 02:25:51;;;;;;;6.22;1.38;;;12.50;82.40;;;;;;5114174;28;20026;-77
2021/10/04 02:28:18;;;;;;;9.30;1.35;;;12.50;82.70;;;;;;5116987;28;20020;-77
2021/10/04 02:30:44;;;;;;;7.85;1.27;;;12.50;82.60;;;;;;5093975;28;20123;-77
2021/10/04 02:33:10;;;;;;;5.70;0.85;;;12.50;82.90;;;;;;5078319;28;20031;-77
2021/10/04 02:35:37;;;;;;;6.57;1.17;;;12.50;82.80;;;;;;5096614;28;20080;-77
2021/10/04 02:38:03;;;;;;;4.05;1.30;;;12.50;83.00;;;;;;5114821;28;20023;-78
2021/10/04 02:40:29;;;;;;;2.45;0.80;;;12.60;82.90;;;;;;5107407;28;20040;-77
2021/10/04 02:42:55;;;;;;;7.47;1.10;;;12.50;82.80;;;;;;5096526;28;20038;-77
2021/10/04 02:45:23;;;;;;;12.38;1.20;;;12.60;82.90;;;;;;5095520;28;20401;-77
2021/10/04 02:47:52;;;;;;;6.15;0.98;;;12.50;82.60;;;;;;5096229;28;20076;-77
2021/10/04 02:50:20;;;;;;;6.13;1.30;;;12.50;83.10;;;;;;5096071;28;20107;-77
2021/10/04 02:52:46;;;;;;;5.95;1.45;;;12.40;83.20;;;;;;5095893;28;20024;-77
2021/10/04 02:55:12;;;;;;;7.38;1.20;;;12.30;83.50;;;;;;5096176;28;20439;-77
2021/10/04 02:57:38;;;;;;;3.83;1.02;;;12.30;83.60;;;;;;5096052;28;20074;-77
2021/10/04 03:00:06;;;;;;;4.30;1.10;;;12.40;83.70;;;;;;5096164;28;20070;-78
2021/10/04 03:02:31;;;;;;;7.10;1.45;;;12.50;83.40;;;;;;5095831;28;20408;-77
2021/10/04 03:04:57;;;;;;;6.35;1.20;;;12.40;83.30;;;;;;5095831;28;20107;-78
2021/10/04 03:07:23;;;;;;;4.15;1.25;;;12.40;83.50;;;;;;5095989;28;20028;-77
2021/10/04 03:09:49;;;;;;;3.90;1.00;;;12.40;83.30;;;;;;5095861;28;20059;-78
2021/10/04 03:12:14;;;;;;;4.35;1.02;;;12.40;83.70;;;;;;5095967;28;20127;-77
2021/10/04 03:14:40;;;;;;;4.07;0.82;;;12.50;83.70;;;;;;5096144;28;20031;-77
2021/10/04 03:17:06;;;;;;;5.95;1.45;;;12.50;83.60;;;;;;5095729;28;20060;-78
2021/10/04 03:19:31;;;;;;;12.30;1.65;;;12.50;83.90;;;;;;5077440;28;20029;-77
2021/10/04 03:21:57;;;;;;;3.13;0.93;;;12.50;83.60;;;;;;5095684;28;20463;-78
2021/10/04 03:24:26;;;;;;;3.17;1.13;;;12.50;83.70;;;;;;5100817;28;20023;-77
2021/10/04 03:26:51;;;;;;;4.20;1.15;;;12.50;84.00;;;;;;5082072;28;20072;-77
2021/10/04 03:29:17;;;;;;;8.32;1.45;;;12.40;83.90;;;;;;5095709;28;20028;-77
2021/10/04 03:31:44;;;;;;;3.42;1.00;;;12.40;84.10;;;;;;5095551;28;20027;-77
2021/10/04 03:34:10;;;;;;;12.77;1.48;;;12.40;84.20;;;;;;5104601;28;20031;-78
2021/10/04 03:36:36;;;;;;;5.63;1.27;;;12.40;84.30;;;;;;5115974;28;20019;-78
2021/10/04 03:39:03;;;;;;;5.35;1.00;;;12.40;84.20;;;;;;5104269;28;20575;-78
2021/10/04 03:41:32;;;;;;;5.53;1.05;;;12.50;84.00;;;;;;5095707;28;20035;-77
2021/10/04 03:43:58;;;;;;;1.70;0.80;;;12.40;83.80;;;;;;5095620;28;20092;-77
2021/10/04 03:46:23;;;;;;;6.63;1.38;;;12.50;83.80;;;;;;5095389;28;20060;-77
2021/10/04 03:48:49;;;;;;;9.70;1.17;;;12.60;83.60;;;;;;5095216;28;20020;-77
2021/10/04 03:51:15;;;;;;;8.82;1.40;;;12.60;83.60;;;;;;5095471;28;20118;-77
2021/10/04 03:53:41;;;;;;;3.25;1.02;;;12.50;83.60;;;;;;5095231;28;20056;-77
2021/10/04 03:56:07;;;;;;;7.03;1.20;;;12.50;83.90;;;;;;5097879;28;20028;-77
2021/10/04 03:58:35;;;;;;;4.32;1.10;;;12.50;84.40;;;;;;5099585;28;20107;-77
2021/10/04 04:01:00;;;;;;;4.95;1.38;;;12.40;84.40;;;;;;5099364;28;20043;-77
2021/10/04 04:03:26;;;;;;;3.90;1.05;;;12.40;84.40;;;;;;5099634;28;20485;-77
2021/10/04 04:05:52;;;;;;;9.45;1.60;;;12.50;84.50;;;;;;5099238;28;20021;-77
2021/10/04 04:08:17;;;;;;;5.53;1.20;;;12.50;84.50;;;;;;5099438;28;20024;-77
2021/10/04 04:10:43;;;;;;;3.55;1.08;;;12.60;84.70;;;;;;5106288;28;20024;-77
2021/10/04 04:13:09;;;;;;;8.15;1.85;;;12.60;84.70;;;;;;5119670;28;20030;-78
2021/10/04 04:15:34;;;;;;;6.20;1.00;;;12.60;84.90;;;;;;5101306;28;20027;-77
2021/10/04 04:18:00;;;;;;;4.72;1.15;;;12.60;85.10;;;;;;5101390;28;20056;-78
2021/10/04 04:20:26;;;;;;;3.67;1.08;;;12.60;85.00;;;;;;5110662;28;20035;-78
2021/10/04 04:22:52;;;;;;;4.70;1.23;;;12.60;85.10;;;;;;5099127;28;20024;-77
2021/10/04 04:25:18;;;;;;;4.50;1.30;;;12.70;85.00;;;;;;5110657;28;20107;-77
2021/10/04 04:27:43;;;;;;;4.07;1.08;;;12.60;85.20;;;;;;5119475;28;20027;-78
2021/10/04 04:30:13;;;;;;;4.70;1.00;;;12.70;85.10;;;;;;5119455;28;20136;-78
2021/10/04 04:32:45;;;;;;;4.38;1.08;;;12.70;85.10;;;;;;5119412;28;20024;-77
2021/10/04 04:35:11;;;;;;;4.55;1.17;;;12.70;85.10;;;;;;5107996;28;20024;-77
2021/10/04 04:37:39;;;;;;;7.30;1.45;;;12.60;85.20;;;;;;5098941;28;20024;-77
2021/10/04 04:40:07;;;;;;;7.35;1.35;;;12.70;85.30;;;;;;5098658;28;20103;-77
2021/10/04 04:42:33;;;;;;;5.82;0.90;;;12.80;84.80;;;;;;5098775;28;20075;-78
2021/10/04 04:44:59;;;;;;;4.57;1.10;;;12.80;84.80;;;;;;5098509;28;20024;-76
2021/10/04 04:47:25;;;;;;;2.75;0.98;;;12.80;84.60;;;;;;5080458;28;20039;-77
2021/10/04 04:49:51;;;;;;;4.03;1.42;;;12.70;84.70;;;;;;5098522;28;20046;-77
2021/10/04 04:52:17;;;;;;;5.32;1.27;;;12.70;84.50;;;;;;5098623;28;20032;-77
2021/10/04 04:54:43;;;;;;;9.55;1.25;;;12.70;84.50;;;;;;5098529;28;20793;-76
2021/10/04 04:57:09;;;;;;;7.68;1.48;;;12.80;84.40;;;;;;5098424;28;20074;-77
2021/10/04 04:59:34;;;;;;;9.60;1.42;;;12.80;84.10;;;;;;5098333;28;20099;-77
2021/10/04 05:02:01;;;;;;;3.22;0.80;;;12.80;83.90;;;;;;5098352;28;20063;-77
2021/10/04 05:04:29;;;;;;;5.35;1.17;;;12.80;83.80;;;;;;5098047;28;20370;-77
2021/10/04 05:06:55;;;;;;;5.93;0.95;;;12.90;83.80;;;;;;5097680;28;20104;-76
2021/10/04 05:09:20;;;;;;;4.75;1.08;;;12.80;83.40;;;;;;5098217;28;20040;-77
2021/10/04 05:11:46;;;;;;;3.35;0.88;;;12.80;83.40;;;;;;5098179;28;20031;-77
2021/10/04 05:14:12;;;;;;;7.05;1.02;;;12.80;83.10;;;;;;5080297;28;20030;-75
2021/10/04 05:16:38;;;;;;;3.30;0.57;;;12.80;82.90;;;;;;5079672;28;20122;-73
2021/10/04 05:19:03;;;;;;;2.80;1.00;;;12.80;83.00;;;;;;5097916;28;20070;-76
2021/10/04 05:21:29;;;;;;;4.65;1.02;;;12.60;83.20;;;;;;5099376;28;20043;-74
2021/10/04 05:23:57;;;;;;;2.67;0.93;;;12.70;83.50;;;;;;5099053;28;20024;-76
2021/10/04 05:26:23;;;;;;;2.65;0.82;;;12.60;83.60;;;;;;5117067;28;20031;-75
2021/10/04 05:28:48;;;;;;;4.28;1.00;;;12.70;83.40;;;;;;5100158;28;20028;-75
2021/10/04 05:31:14;;;;;;;2.78;0.88;;;12.70;83.20;;;;;;5099984;28;20118;-75
2021/10/04 05:33:40;;;;;;;5.18;1.10;;;12.70;83.30;;;;;;5107487;28;20034;-75
2021/10/04 05:36:06;;;;;;;2.03;0.80;;;12.60;83.80;;;;;;5107855;28;20077;-75
2021/10/04 05:38:33;;;;;;;3.42;0.95;;;12.60;84.20;;;;;;5117813;28;20019;-76
2021/10/04 05:41:04;;;;;;;2.85;0.75;;;12.60;84.40;;;;;;5117931;28;20524;-75
2021/10/04 05:43:32;;;;;;;4.82;0.82;;;12.60;84.40;;;;;;5106978;28;20024;-76
2021/10/04 05:45:58;;;;;;;4.78;1.33;;;12.70;84.50;;;;;;5099752;28;20039;-76
2021/10/04 05:48:24;;;;;;;7.07;1.05;;;12.60;84.90;;;;;;5095689;28;20051;-76
2021/10/04 05:50:49;;;;;;;9.57;1.63;;;12.60;85.10;;;;;;5097374;28;20027;-78
2021/10/04 05:53:16;;;;;;;7.80;1.40;;;12.60;84.90;;;;;;5094421;28;20136;-75
2021/10/04 05:55:43;;;;;;;4.45;1.10;;;12.70;85.00;;;;;;5117846;28;20830;-75
2021/10/04 05:58:17;;;;;;;4.10;1.00;;;12.70;84.90;;;;;;5098749;28;20573;-75
2021/10/04 06:00:43;;;;;;;2.38;1.10;;;12.70;84.70;;;;;;5097025;28;20027;-75
2021/10/04 06:03:09;;;;;;;7.20;1.55;;;12.70;84.70;;;;;;5097401;28;20038;-75
2021/10/04 06:05:35;;;;;;;6.20;1.02;;;12.60;84.60;;;;;;5096882;28;20408;-75
2021/10/04 06:08:02;;;;;;;2.13;0.70;;;12.60;85.00;;;;;;5097106;28;20493;-75
2021/10/04 06:10:28;;;;;;;2.75;1.02;;;12.60;84.90;;;;;;5095218;28;20081;-75
2021/10/04 06:12:54;;;;;;;2.88;1.05;;;12.60;85.10;;;;;;5117501;28;20031;-75
2021/10/04 06:15:20;;;;;;;3.15;0.88;;;12.50;84.80;;;;;;5106273;28;20444;-76
2021/10/04 06:17:46;;;;;;;2.95;0.98;;;12.50;85.00;;;;;;5094975;28;20498;-74
2021/10/04 06:20:13;;;;;;;3.38;1.33;;;12.50;84.90;;;;;;5094511;28;20056;-75
2021/10/04 06:22:39;;;;;;;5.22;1.20;;;12.50;84.90;;;;;;5096121;28;20028;-75
2021/10/04 06:25:08;;;;;;;6.40;1.23;;;12.50;85.20;;;;;;5103756;28;20034;-75
2021/10/04 06:27:34;;;;;;;6.47;1.17;;;12.50;85.00;;;;;;5078533;28;20118;-75
2021/10/04 06:30:00;;;;;;;3.85;0.95;;;12.40;85.20;;;;;;5096441;28;20993;-75
2021/10/04 06:32:26;;;;;;;3.72;0.90;;;12.40;85.20;;;;;;5096857;28;20016;-75
2021/10/04 06:34:51;;;;;;;3.42;1.00;;;12.40;85.20;;;;;;5096619;28;20050;-75
2021/10/04 06:37:17;;;;;;;3.30;1.20;;;12.40;85.30;;;;;;5078314;28;20024;-75
2021/10/04 06:39:43;;;;;;;4.25;1.20;;;12.40;85.30;;;;;;5078171;28;20134;-75
2021/10/04 06:42:09;;;;;;;4.05;0.90;;;12.50;85.00;;;;;;5096424;28;20085;-75
2021/10/04 06:44:35;;;;;;;4.20;1.40;;;12.50;85.20;;;;;;5111383;28;20051;-75
2021/10/04 06:47:01;;;;;;;8.57;2.03;;;12.50;85.50;;;;;;5102271;28;20032;-75
2021/10/04 06:49:27;;;;;;;2.55;0.90;;;12.50;85.20;;;;;;5092531;28;20063;-75
2021/10/04 06:51:53;;;;;;;2.72;1.17;;;12.50;85.20;;;;;;5096145;28;20032;-75
2021/10/04 06:54:18;;;;;;;3.97;1.08;;;12.60;85.50;;;;;;5096027;28;20059;-75
2021/10/04 06:56:44;;;;;;;10.05;1.30;;;12.60;85.30;;;;;;5096323;28;20045;-75
2021/10/04 06:59:10;;;;;;;2.63;0.90;;;12.70;85.10;;;;;;5078352;28;20528;-75
2021/10/04 07:01:36;;;;;;;3.17;0.88;;;12.80;84.60;;;;;;5077795;28;20028;-75
2021/10/04 07:04:04;;;;;;;5.95;1.30;;;12.80;84.60;;;;;;5096022;28;20034;-75
2021/10/04 07:06:30;;;;;;;5.32;0.90;;;12.80;84.50;;;;;;5096029;28;20090;-75
2021/10/04 07:08:56;;;;;;;4.25;0.90;;;12.90;84.50;;;;;;5095823;28;20459;-75
2021/10/04 07:11:22;;;;;;;6.57;1.20;;;13.10;83.80;;;;;;5077836;28;20051;-75
2021/10/04 07:13:49;;;;;;;5.45;1.25;;;13.30;83.40;;;;;;5096094;28;20054;-75
2021/10/04 07:16:15;;;;;;;5.95;1.10;;;13.50;82.80;;;;;;5115857;28;20016;-74
2021/10/04 07:18:41;;;;;;;1.92;1.08;;;13.70;82.50;;;;;;5116203;28;20030;-75
2021/10/04 07:21:10;;;;;;;4.63;1.30;;;13.80;81.80;;;;;;5093392;28;20028;-75
2021/10/04 07:23:36;;;;;;;6.88;0.95;;;14.00;81.10;;;;;;5095625;28;20093;-75
2021/10/04 07:26:03;;;;;;;4.35;1.60;;;14.20;80.20;;;;;;5114901;28;20027;-74
2021/10/04 07:28:29;;;;;;;2.33;0.88;;;14.30;80.10;;;;;;5103239;28;20036;-75
2021/10/04 07:30:56;;;;;;;7.97;1.10;;;14.50;79.90;;;;;;5095064;28;20035;-75
2021/10/04 07:33:23;;;;;;;7.25;1.52;;;14.50;79.70;;;;;;5095515;28;20016;-75
2021/10/04 07:35:50;;;;;;;6.10;1.00;;;14.60;79.20;;;;;;5095750;28;20129;-75
2021/10/04 07:38:19;;;;;;;6.82;1.02;;;14.60;79.40;;;;;;5095157;28;20093;-75
2021/10/04 07:40:46;;;;;;;6.85;1.40;;;14.60;79.70;;;;;;5095852;28;20048;-75
2021/10/04 07:43:12;;;;;;;1.60;1.20;;;14.50;80.20;;;;;;5082353;28;20378;-75
2021/10/04 07:45:38;;;;;;;6.75;1.20;;;14.70;80.00;;;;;;5115935;28;20481;-75
2021/10/04 07:48:04;;;;;;;3.47;1.02;;;14.70;79.50;;;;;;5098486;28;20035;-75
2021/10/04 07:50:30;;;;;;;3.92;1.15;;;14.60;79.90;;;;;;5095388;28;20055;-76
2021/10/04 07:52:56;;;;;;;11.48;1.55;;;14.50;80.50;;;;;;5110354;28;20397;-75
2021/10/04 07:55:22;;;;;;;7.25;1.63;;;14.50;81.20;;;;;;5115819;28;20035;-75
2021/10/04 07:57:49;;;;;;;5.75;1.02;;;14.50;81.10;;;;;;5101206;28;20135;-75
2021/10/04 08:00:19;;;;;;;5.05;0.90;;;14.50;81.50;;;;;;5095613;28;20035;-74
2021/10/04 08:02:45;;;;;;;5.43;1.30;;;14.50;81.50;;;;;;5097768;28;20039;-75
2021/10/04 08:05:12;;;;;;;3.22;1.00;;;14.60;81.40;;;;;;5103089;28;20084;-75
2021/10/04 08:07:38;;;;;;;7.53;1.30;;;14.60;81.60;;;;;;5095277;28;20028;-75
2021/10/04 08:10:05;;;;;;;6.32;1.05;;;14.70;81.40;;;;;;5102769;28;20416;-75
2021/10/04 08:12:32;;;;;;;5.32;1.58;;;14.80;81.40;;;;;;5115848;28;20035;-75
2021/10/04 08:14:57;;;;;;;4.10;1.00;;;14.80;81.70;;;;;;5097155;28;20107;-75
2021/10/04 08:17:24;;;;;;;5.07;0.90;;;14.90;81.50;;;;;;5095123;28;20060;-75
2021/10/04 08:19:51;;;;;;;7.95;1.40;;;15.00;81.30;;;;;;5095224;28;20031;-75
2021/10/04 08:22:17;;;;;;;5.10;1.42;;;15.00;80.80;;;;;;5095033;28;20386;-75
2021/10/04 08:24:43;;;;;;;8.13;1.63;;;15.10;80.70;;;;;;5103328;28;20829;-75
2021/10/04 08:27:09;;;;;;;5.82;0.85;;;15.10;80.80;;;;;;5115659;28;20024;-75
2021/10/04 08:29:35;;;;;;;4.43;0.88;;;15.10;80.60;;;;;;5115444;28;20039;-75
2021/10/04 08:32:01;;;;;;;5.20;1.10;;;15.20;80.50;;;;;;5096509;28;20028;-75
2021/10/04 08:34:27;;;;;;;6.85;1.08;;;15.30;80.60;;;;;;5115360;28;20482;-75
2021/10/04 08:36:53;;;;;;;5.85;1.52;;;15.30;80.20;;;;;;5105937;28;20020;-75
2021/10/04 08:39:18;;;;;;;5.80;1.05;;;15.40;80.00;;;;;;5094769;28;20056;-75
2021/10/04 08:41:44;;;;;;;5.50;0.88;;;15.50;79.70;;;;;;5095101;28;20084;-75
2021/10/04 08:44:14;;;;;;;6.47;1.40;;;15.50;79.20;;;;;;5111873;28;20080;-75
2021/10/04 08:46:42;;;;;;;2.58;0.98;;;15.70;79.50;;;;;;5083337;28;20032;-75
2021/10/04 08:49:09;;;;;;;4.13;0.75;;;15.70;79.60;;;;;;5098686;28;20039;-75
2021/10/04 08:51:36;;;;;;;4.85;1.17;;;15.80;79.30;;;;;;5080041;28;20039;-74
2021/10/04 08:54:05;;;;;;;11.68;1.13;;;15.90;78.70;;;;;;5098409;28;20069;-75
2021/10/04 08:56:32;;;;;;;6.35;1.10;;;15.90;78.80;;;;;;5104534;28;20020;-75
2021/10/04 08:58:58;;;;;;;4.00;0.98;;;16.00;78.80;;;;;;5100804;28;20031;-75
2021/10/04 09:01:24;;;;;;;5.68;1.20;;;16.10;77.70;;;;;;5102176;28;20048;-75
2021/10/04 09:03:58;;;;;;;4.63;1.00;;;16.20;78.00;;;;;;5080034;28;20103;-75
2021/10/04 09:06:27;;;;;;;4.75;1.58;;;16.30;78.00;;;;;;5080332;28;20135;-76
2021/10/04 09:09:05;;;;;;;6.63;1.17;;;16.30;78.10;;;;;;5098028;28;20042;-75
2021/10/04 09:11:36;;;;;;;7.63;1.50;;;16.50;76.60;;;;;;5098242;28;20024;-75
2021/10/04 09:14:19;;;;;;;7.90;1.23;;;16.60;77.20;;;;;;5098126;28;20106;-75
2021/10/04 09:17:00;;;;;;;2.83;0.68;;;16.60;76.60;;;;;;5097896;28;20036;-75
2021/10/04 09:19:31;;;;;;;10.57;1.10;;;16.80;77.40;;;;;;5098241;28;20401;-75
2021/10/04 09:22:18;;;;;;;4.10;1.10;;;16.80;77.20;;;;;;5098039;28;20076;-76
2021/10/04 09:25:01;;;;;;;5.22;0.93;;;16.70;77.10;;;;;;5105982;28;20382;-75
2021/10/04 09:27:36;;;;;;;5.13;1.00;;;16.60;76.60;;;;;;5095887;28;20035;-75
2021/10/04 09:30:10;;;;;;;8.25;1.90;;;16.70;77.00;;;;;;5097966;28;20059;-76
2021/10/04 09:32:37;;;;;;;2.60;0.95;;;16.80;76.40;;;;;;5079963;28;20031;-75
2021/10/04 09:35:29;;;;;;;6.20;1.25;;;17.00;76.60;;;;;;5097643;28;20141;-75
2021/10/04 09:38:16;;;;;;;4.20;1.08;;;16.80;76.60;;;;;;5109283;28;20020;-76
2021/10/04 09:40:47;;;;;;;4.45;1.05;;;16.90;76.20;;;;;;5117879;28;20043;-75
2021/10/04 09:43:28;;;;;;;6.38;0.95;;;16.90;76.70;;;;;;5112562;28;20028;-75
2021/10/04 09:46:06;;;;;;;3.80;0.88;;;16.90;75.80;;;;;;5118075;28;20046;-75
2021/10/04 09:48:33;;;;;;;5.68;1.08;;;17.20;76.00;;;;;;5101360;28;20032;-76
2021/10/04 09:51:15;;;;;;;5.88;1.10;;;17.20;75.10;;;;;;5079326;28;20647;-76
2021/10/04 09:53:41;;;;;;;6.53;0.90;;;17.40;75.00;;;;;;5097224;28;20465;-75
2021/10/04 09:56:08;;;;;;;3.75;0.90;;;17.70;74.40;;;;;;5113689;28;20165;-76
2021/10/04 09:58:33;;;;;;;8.27;1.20;;;17.80;73.50;;;;;;5117869;28;20357;-76
2021/10/04 10:01:02;;;;;;;3.85;0.65;;;17.80;73.60;;;;;;5099592;28;20019;-76
2021/10/04 10:03:39;;;;;;;2.40;1.00;;;18.00;73.30;;;;;;5085830;28;20028;-76
2021/10/04 10:06:05;;;;;;;5.95;0.98;;;18.10;73.70;;;;;;5097071;28;20077;-75
2021/10/04 10:08:31;;;;;;;4.93;1.20;;;18.10;72.80;;;;;;5105637;28;20043;-75
2021/10/04 10:11:00;;;;;;;3.72;0.80;;;18.00;73.00;;;;;;5115679;28;20028;-75
2021/10/04 10:13:28;;;;;;;6.55;1.05;;;18.10;72.30;;;;;;5097064;28;20051;-75
2021/10/04 10:16:20;;;;;;;7.07;1.35;;;17.90;72.00;;;;;;5096900;28;20082;-75
2021/10/04 10:18:52;;;;;;;3.33;0.80;;;17.90;72.30;;;;;;5096679;28;20024;-76
2021/10/04 10:21:20;;;;;;;3.20;0.70;;;17.70;72.00;;;;;;5097011;28;20032;-75
2021/10/04 10:23:53;;;;;;;3.20;1.08;;;17.90;72.40;;;;;;5078787;28;20027;-75
2021/10/04 10:26:28;;;;;;;5.50;1.10;;;17.80;71.50;;;;;;5078588;28;20024;-75
2021/10/04 10:29:17;;;;;;;8.73;1.17;;;18.30;71.50;;;;;;5078467;28;20020;-75
2021/10/04 10:31:51;;;;;;;4.22;0.95;;;18.50;70.30;;;;;;5096377;28;20024;-75
2021/10/04 10:34:29;;;;;;;7.30;1.02;;;18.60;69.00;;;;;;5096497;28;20032;-76
2021/10/04 10:37:15;;;;;;;8.35;1.05;;;18.80;69.80;;;;;;5108865;28;20019;-76
2021/10/04 10:39:47;;;;;;;6.50;0.88;;;18.80;68.60;;;;;;5110066;28;20047;-76
2021/10/04 10:42:15;;;;;;;4.18;1.02;;;19.00;69.10;;;;;;5096328;28;20107;-76
2021/10/04 10:44:59;;;;;;;2.33;0.73;;;18.50;67.20;;;;;;5113898;28;20035;-76
2021/10/04 10:47:34;;;;;;;7.38;1.45;;;18.40;68.80;;;;;;5107668;28;20032;-76
2021/10/04 10:50:08;;;;;;;4.95;0.68;;;18.30;69.40;;;;;;5096337;28;20063;-77
2021/10/04 10:52:41;;;;;;;3.28;0.88;;;18.30;70.10;;;;;;5096450;28;20107;-75
2021/10/04 10:55:19;;;;;;;1.92;0.70;;;18.40;69.90;;;;;;5094966;28;20115;-75
2021/10/04 10:58:07;;;;;;;5.30;0.90;;;18.30;69.50;;;;;;5077671;28;20017;-77
2021/10/04 11:00:44;;;;;;;4.88;0.95;;;18.40;69.50;;;;;;5096447;28;20108;-77
2021/10/04 11:03:26;;;;;;;4.00;0.93;;;18.40;70.20;;;;;;5096470;28;20035;-77
2021/10/04 11:05:56;;;;;;;12.13;1.40;;;18.50;70.00;;;;;;5095385;28;20540;-77
2021/10/04 11:08:22;;;;;;;;;;;18.80;70.20;;;;;;5096533;28;20119;-77
2021/10/04 11:10:47;;;;;;;4.00;1.00;;;19.20;69.20;;;;;;5095790;28;19959;-77
2021/10/04 11:13:26;;;;;;;5.43;0.80;;;19.50;68.00;;;;;;5095905;28;20031;-77
2021/10/04 11:15:53;;;;;;;2.95;1.00;;;19.60;67.20;;;;;;5095850;28;20082;-77
2021/10/04 11:18:20;;;;;;;4.47;0.90;;;19.80;64.30;;;;;;5095898;28;20106;-78
2021/10/04 11:20:46;;;;;;;5.65;1.20;;;20.10;64.50;;;;;;5095809;28;20029;-76
2021/10/04 11:23:15;;;;;;;2.95;0.80;;;20.30;64.40;;;;;;5095844;28;20028;-76
2021/10/04 11:25:50;;;;;;;3.60;0.95;;;20.20;62.90;;;;;;5080380;28;20031;-76
2021/10/04 11:28:21;;;;;;;2.20;0.75;;;20.30;64.60;;;;;;5095557;28;20466;-75
2021/10/04 11:31:05;;;;;;;5.30;1.17;;;20.30;64.00;;;;;;5095623;28;20102;-77
2021/10/04 11:33:33;;;;;;;3.95;1.75;;;20.30;65.70;;;;;;5095597;28;20048;-80
2021/10/04 11:35:58;;;;;;;4.47;0.90;;;20.40;64.20;;;;;;5095647;28;20432;-78
2021/10/04 11:38:26;;;;;;;4.88;0.77;;;20.00;63.60;;;;;;5095349;28;20024;-80
2021/10/04 11:40:53;;;;;;;1.95;0.50;;;19.90;64.20;;;;;;5095687;28;20036;-79
2021/10/04 11:43:19;;;;;;;4.15;0.60;;;19.70;64.40;;;;;;5101226;28;20027;-81
2021/10/04 11:45:46;;;;;;;2.83;0.77;;;19.40;63.90;;;;;;5115951;28;20023;-81
2021/10/04 11:48:39;;;;;;;2.53;0.60;;;19.00;71.30;;;;;;5114624;28;20557;-83
2021/10/04 11:51:08;;;;;;;2.20;0.60;;;18.80;72.40;;;;;;5115827;28;20427;-81
2021/10/04 11:53:39;;;;;;;3.95;0.80;;;18.60;72.80;;;;;;5115956;28;20020;-81
2021/10/04 11:56:08;;;;;;;6.10;0.90;;;18.80;72.80;;;;;;5111029;28;20499;-81
2021/10/04 11:58:34;;;;;;;7.38;0.63;;;19.10;71.90;;;;;;5095507;28;20028;-83
2021/10/04 12:01:03;;;;;;;1.80;0.43;;;19.40;71.70;;;;;;5095297;28;20097;-81
2021/10/04 12:03:32;;;;;;;6.53;1.58;;;19.60;70.20;;;;;;5095242;28;20024;-81
2021/10/04 12:06:00;;;;;;;2.47;0.80;;;20.00;69.50;;;;;;5095285;28;20105;-82
2021/10/04 12:08:35;;;;;;;8.70;1.05;;;20.10;68.00;;;;;;5095437;28;20050;-82
2021/10/04 12:11:06;;;;;;;1.38;0.43;;;20.20;64.00;;;;;;5095218;28;20036;-82
2021/10/04 12:13:42;;;;;;;6.55;0.95;;;20.30;65.00;;;;;;5095180;28;20024;-82
2021/10/04 12:16:13;;;;;;;2.63;0.57;;;20.30;65.80;;;;;;5095783;28;20392;-81
2021/10/04 12:18:53;;;;;;;2.42;0.68;;;20.10;65.20;;;;;;5099280;28;20026;-81
2021/10/04 12:21:23;;;;;;;2.67;0.38;;;20.20;64.90;;;;;;5119814;28;20030;-82
2021/10/04 12:24:19;;;;;;;2.03;0.43;;;20.10;63.00;;;;;;5119732;28;20035;-82
2021/10/04 12:26:57;;;;;;;2.45;0.60;;;19.90;64.00;;;;;;5119724;28;20027;-81
2021/10/04 12:29:42;;;;;;;3.13;0.70;;;20.10;65.90;;;;;;5118088;28;20031;-81
2021/10/04 12:32:21;;;;;;;4.22;0.80;;;20.00;66.60;;;;;;5106806;28;20038;-82
2021/10/04 12:35:16;;;;;;;3.53;1.00;;;19.90;67.40;;;;;;5119364;28;20045;-81
2021/10/04 12:37:44;;;;;;;4.95;0.80;;;19.90;67.90;;;;;;5107239;28;20345;-81
2021/10/04 12:40:40;;;;;;;3.65;0.70;;;20.00;67.70;;;;;;5098922;28;20048;-82
2021/10/04 12:43:21;;;;;;;2.78;0.50;;;20.30;68.70;;;;;;5067246;28;20032;-81
2021/10/04 12:46:02;;;;;;;2.55;0.75;;;20.50;65.80;;;;;;5101302;28;20032;-82
2021/10/04 12:48:29;;;;;;;4.47;0.50;;;20.30;62.00;;;;;;5080882;28;20035;-80
2021/10/04 12:51:11;;;;;;;2.70;0.40;;;20.30;62.00;;;;;;5098989;28;20036;-79
2021/10/04 12:53:48;;;;;;;0.70;0.30;;;20.20;61.00;;;;;;5080226;28;20092;-79
2021/10/04 12:56:22;;;;;;;3.08;0.60;;;19.90;60.40;;;;;;5098586;28;20052;-80